sensor_id;sensor_type;location;lat;lon;timestamp;P1;durP1;ratioP1;P2;durP2;ratioP2
43256;SDS011;28860;43.212;27.934;2022-12-05T05:21:27;3.25;;;1.90;;
43256;SDS011;28860;43.212;27.934;2022-12-05T05:23:58;3.20;;;1.60;;
43256;SDS011;28860;43.212;27.934;2022-12-05T05:26:30;2.30;;;1.40;;
43256;SDS011;28860;43.212;27.934;2022-12-05T05:28:58;4.35;;;1.80;;
43256;SDS011;28860;43.212;27.934;2022-12-05T05:31:24;2.55;;;1.80;;
43256;SDS011;28860;43.212;27.934;2022-12-05T05:33:56;4.40;;;1.80;;
43256;SDS011;28860;43.212;27.934;2022-12-05T05:36:23;3.58;;;1.52;;
43256;SDS011;28860;43.212;27.934;2022-12-05T05:38:51;1.85;;;1.60;;
43256;SDS011;28860;43.212;27.934;2022-12-05T05:46:36;2.50;;;1.80;;
43256;SDS011;28860;43.212;27.934;2022-12-05T05:51:54;2.58;;;1.88;;
43256;SDS011;28860;43.212;27.934;2022-12-05T05:54:20;3.38;;;1.85;;
43256;SDS011;28860;43.212;27.934;2022-12-05T05:56:50;4.03;;;2.28;;
43256;SDS011;28860;43.212;27.934;2022-12-05T05:59:16;4.85;;;2.47;;
43256;SDS011;28860;43.212;27.934;2022-12-05T06:01:41;2.40;;;1.92;;
43256;SDS011;28860;43.212;27.934;2022-12-05T06:07:14;4.15;;;2.33;;
43256;SDS011;28860;43.212;27.934;2022-12-05T06:09:40;4.68;;;2.55;;
43256;SDS011;28860;43.212;27.934;2022-12-05T06:18:53;3.40;;;2.28;;
43256;SDS011;28860;43.212;27.934;2022-12-05T06:28:16;6.53;;;2.30;;
43256;SDS011;28860;43.212;27.934;2022-12-05T06:30:42;4.60;;;2.30;;
43256;SDS011;28860;43.212;27.934;2022-12-05T06:33:08;4.45;;;2.50;;
43256;SDS011;28860;43.212;27.934;2022-12-05T06:35:36;3.45;;;2.22;;
43256;SDS011;28860;43.212;27.934;2022-12-05T06:38:04;4.40;;;2.40;;
43256;SDS011;28860;43.212;27.934;2022-12-05T06:40:30;4.88;;;2.25;;
43256;SDS011;28860;43.212;27.934;2022-12-05T06:42:57;4.78;;;2.35;;
43256;SDS011;28860;43.212;27.934;2022-12-05T06:45:22;8.00;;;2.40;;
43256;SDS011;28860;43.212;27.934;2022-12-05T06:50:37;4.13;;;2.28;;
43256;SDS011;28860;43.212;27.934;2022-12-05T06:53:03;3.58;;;2.17;;
43256;SDS011;28860;43.212;27.934;2022-12-05T06:58:39;3.38;;;2.10;;
43256;SDS011;28860;43.212;27.934;2022-12-05T07:01:12;5.75;;;2.13;;
43256;SDS011;28860;43.212;27.934;2022-12-05T07:04:00;3.10;;;2.03;;
43256;SDS011;28860;43.212;27.934;2022-12-05T07:06:26;5.32;;;2.42;;
43256;SDS011;28860;43.212;27.934;2022-12-05T07:08:52;4.28;;;2.10;;
43256;SDS011;28860;43.212;27.934;2022-12-05T07:11:17;4.70;;;2.65;;
43256;SDS011;28860;43.212;27.934;2022-12-05T07:13:43;4.50;;;2.20;;
43256;SDS011;28860;43.212;27.934;2022-12-05T07:16:27;6.18;;;2.03;;
43256;SDS011;28860;43.212;27.934;2022-12-05T07:18:54;4.20;;;2.17;;
43256;SDS011;28860;43.212;27.934;2022-12-05T07:21:21;3.38;;;1.90;;
43256;SDS011;28860;43.212;27.934;2022-12-05T07:24:00;5.57;;;2.08;;
43256;SDS011;28860;43.212;27.934;2022-12-05T07:26:26;6.30;;;2.40;;
43256;SDS011;28860;43.212;27.934;2022-12-05T07:28:53;4.97;;;2.20;;
43256;SDS011;28860;43.212;27.934;2022-12-05T07:31:31;5.90;;;3.05;;
43256;SDS011;28860;43.212;27.934;2022-12-05T07:33:58;6.63;;;2.20;;
43256;SDS011;28860;43.212;27.934;2022-12-05T07:36:24;5.18;;;2.30;;
43256;SDS011;28860;43.212;27.934;2022-12-05T07:38:55;3.72;;;2.70;;
43256;SDS011;28860;43.212;27.934;2022-12-05T07:41:24;5.72;;;2.55;;
43256;SDS011;28860;43.212;27.934;2022-12-05T07:47:18;6.10;;;3.38;;
43256;SDS011;28860;43.212;27.934;2022-12-05T07:49:49;4.07;;;3.00;;
43256;SDS011;28860;43.212;27.934;2022-12-05T09:29:27;8.10;;;2.70;;
43256;SDS011;28860;43.212;27.934;2022-12-05T09:31:57;9.15;;;3.67;;
43256;SDS011;28860;43.212;27.934;2022-12-05T09:34:24;8.90;;;3.38;;
43256;SDS011;28860;43.212;27.934;2022-12-05T09:36:53;6.85;;;3.30;;
43256;SDS011;28860;43.212;27.934;2022-12-05T09:39:19;9.93;;;4.07;;
43256;SDS011;28860;43.212;27.934;2022-12-05T09:50:44;9.70;;;2.75;;
43256;SDS011;28860;43.212;27.934;2022-12-05T09:53:35;6.53;;;3.00;;
43256;SDS011;28860;43.212;27.934;2022-12-05T09:56:11;10.52;;;3.22;;
43256;SDS011;28860;43.212;27.934;2022-12-05T09:59:14;6.07;;;3.08;;
43256;SDS011;28860;43.212;27.934;2022-12-05T10:14:49;8.13;;;3.78;;
43256;SDS011;28860;43.212;27.934;2022-12-05T10:21:20;8.38;;;4.10;;
43256;SDS011;28860;43.212;27.934;2022-12-05T10:24:28;10.20;;;4.43;;
43256;SDS011;28860;43.212;27.934;2022-12-05T10:27:23;9.65;;;3.13;;
43256;SDS011;28860;43.212;27.934;2022-12-05T10:35:17;7.43;;;2.97;;
43256;SDS011;28860;43.212;27.934;2022-12-05T10:37:52;7.20;;;4.20;;
43256;SDS011;28860;43.212;27.934;2022-12-05T10:40:43;12.15;;;4.50;;
43256;SDS011;28860;43.212;27.934;2022-12-05T10:43:18;10.60;;;4.10;;
43256;SDS011;28860;43.212;27.934;2022-12-05T10:45:50;9.35;;;3.47;;
43256;SDS011;28860;43.212;27.934;2022-12-05T10:51:17;7.75;;;3.30;;
43256;SDS011;28860;43.212;27.934;2022-12-05T10:53:53;10.73;;;3.40;;
43256;SDS011;28860;43.212;27.934;2022-12-05T10:59:47;7.75;;;2.40;;
43256;SDS011;28860;43.212;27.934;2022-12-05T11:02:49;7.65;;;3.17;;
43256;SDS011;28860;43.212;27.934;2022-12-05T11:06:00;8.82;;;3.45;;
43256;SDS011;28860;43.212;27.934;2022-12-05T11:15:18;7.53;;;3.40;;
43256;SDS011;28860;43.212;27.934;2022-12-05T11:21:11;11.65;;;3.70;;
43256;SDS011;28860;43.212;27.934;2022-12-05T11:24:44;5.68;;;3.25;;
43256;SDS011;28860;43.212;27.934;2022-12-05T11:33:39;7.60;;;3.08;;
43256;SDS011;28860;43.212;27.934;2022-12-05T11:36:17;6.60;;;3.22;;
43256;SDS011;28860;43.212;27.934;2022-12-05T11:38:53;5.65;;;3.17;;
43256;SDS011;28860;43.212;27.934;2022-12-05T11:41:39;7.45;;;3.13;;
43256;SDS011;28860;43.212;27.934;2022-12-05T11:44:48;8.30;;;2.83;;
43256;SDS011;28860;43.212;27.934;2022-12-05T12:13:16;8.15;;;3.03;;
43256;SDS011;28860;43.212;27.934;2022-12-05T12:23:30;7.68;;;3.00;;
43256;SDS011;28860;43.212;27.934;2022-12-05T14:27:51;8.10;;;3.47;;
43256;SDS011;28860;43.212;27.934;2022-12-05T14:30:12;9.55;;;3.85;;
43256;SDS011;28860;43.212;27.934;2022-12-05T14:32:49;7.90;;;3.88;;
43256;SDS011;28860;43.212;27.934;2022-12-05T14:37:55;7.35;;;3.70;;
43256;SDS011;28860;43.212;27.934;2022-12-05T14:43:27;8.80;;;4.00;;
43256;SDS011;28860;43.212;27.934;2022-12-05T14:46:15;12.70;;;3.65;;
43256;SDS011;28860;43.212;27.934;2022-12-05T14:48:50;5.30;;;3.40;;
43256;SDS011;28860;43.212;27.934;2022-12-05T14:54:07;7.22;;;3.05;;
43256;SDS011;28860;43.212;27.934;2022-12-05T14:56:41;10.15;;;3.22;;
43256;SDS011;28860;43.212;27.934;2022-12-05T14:59:28;6.28;;;3.45;;
43256;SDS011;28860;43.212;27.934;2022-12-05T15:02:04;5.85;;;3.03;;
43256;SDS011;28860;43.212;27.934;2022-12-05T15:07:11;8.13;;;3.78;;
43256;SDS011;28860;43.212;27.934;2022-12-05T15:10:07;7.57;;;3.85;;
43256;SDS011;28860;43.212;27.934;2022-12-05T15:13:32;5.22;;;2.92;;
43256;SDS011;28860;43.212;27.934;2022-12-05T15:18:39;9.20;;;3.35;;
43256;SDS011;28860;43.212;27.934;2022-12-05T15:21:20;7.63;;;3.28;;
43256;SDS011;28860;43.212;27.934;2022-12-05T15:24:11;6.78;;;3.45;;
43256;SDS011;28860;43.212;27.934;2022-12-05T15:26:43;9.93;;;3.33;;
43256;SDS011;28860;43.212;27.934;2022-12-05T15:29:11;9.32;;;3.25;;
43256;SDS011;28860;43.212;27.934;2022-12-05T15:32:03;8.38;;;3.80;;
43256;SDS011;28860;43.212;27.934;2022-12-05T15:34:41;23.02;;;4.53;;
43256;SDS011;28860;43.212;27.934;2022-12-05T15:40:09;9.48;;;3.55;;
43256;SDS011;28860;43.212;27.934;2022-12-05T15:42:40;8.75;;;3.35;;
43256;SDS011;28860;43.212;27.934;2022-12-05T15:47:39;6.15;;;3.03;;
43256;SDS011;28860;43.212;27.934;2022-12-05T15:50:24;6.10;;;3.50;;
43256;SDS011;28860;43.212;27.934;2022-12-05T15:52:53;9.43;;;3.42;;
43256;SDS011;28860;43.212;27.934;2022-12-05T15:58:03;7.88;;;3.33;;
43256;SDS011;28860;43.212;27.934;2022-12-05T16:00:31;8.00;;;3.60;;
43256;SDS011;28860;43.212;27.934;2022-12-05T16:06:21;13.52;;;3.88;;
43256;SDS011;28860;43.212;27.934;2022-12-05T16:08:47;10.57;;;3.90;;
43256;SDS011;28860;43.212;27.934;2022-12-05T16:11:15;11.30;;;4.20;;
43256;SDS011;28860;43.212;27.934;2022-12-05T16:13:42;7.82;;;3.70;;
43256;SDS011;28860;43.212;27.934;2022-12-05T16:16:15;10.13;;;3.70;;
43256;SDS011;28860;43.212;27.934;2022-12-05T16:18:53;16.40;;;3.78;;
43256;SDS011;28860;43.212;27.934;2022-12-05T17:42:27;7.93;;;3.50;;
43256;SDS011;28860;43.212;27.934;2022-12-05T17:44:53;10.07;;;3.58;;
43256;SDS011;28860;43.212;27.934;2022-12-05T17:47:19;12.85;;;3.60;;
43256;SDS011;28860;43.212;27.934;2022-12-05T17:49:45;7.57;;;3.67;;
43256;SDS011;28860;43.212;27.934;2022-12-05T17:52:11;9.82;;;3.75;;
43256;SDS011;28860;43.212;27.934;2022-12-05T17:54:36;14.25;;;4.35;;
43256;SDS011;28860;43.212;27.934;2022-12-05T17:57:02;10.40;;;3.97;;
43256;SDS011;28860;43.212;27.934;2022-12-05T17:59:27;10.15;;;4.25;;
43256;SDS011;28860;43.212;27.934;2022-12-05T18:01:53;9.65;;;3.72;;
43256;SDS011;28860;43.212;27.934;2022-12-05T18:04:19;9.95;;;3.97;;
43256;SDS011;28860;43.212;27.934;2022-12-05T18:06:46;10.60;;;4.30;;
43256;SDS011;28860;43.212;27.934;2022-12-05T18:09:12;13.95;;;5.28;;
43256;SDS011;28860;43.212;27.934;2022-12-05T18:11:40;8.65;;;4.30;;
43256;SDS011;28860;43.212;27.934;2022-12-05T18:14:06;11.65;;;4.35;;
43256;SDS011;28860;43.212;27.934;2022-12-05T18:16:36;9.95;;;4.40;;
43256;SDS011;28860;43.212;27.934;2022-12-05T18:19:01;10.50;;;4.22;;
43256;SDS011;28860;43.212;27.934;2022-12-05T18:21:27;12.90;;;3.95;;
43256;SDS011;28860;43.212;27.934;2022-12-05T18:23:53;11.18;;;4.75;;
43256;SDS011;28860;43.212;27.934;2022-12-05T18:26:19;9.95;;;3.92;;
43256;SDS011;28860;43.212;27.934;2022-12-05T18:28:44;17.85;;;5.05;;
43256;SDS011;28860;43.212;27.934;2022-12-05T18:31:12;9.77;;;4.07;;
43256;SDS011;28860;43.212;27.934;2022-12-05T18:33:40;6.95;;;3.85;;
43256;SDS011;28860;43.212;27.934;2022-12-05T18:36:07;11.10;;;4.10;;
43256;SDS011;28860;43.212;27.934;2022-12-05T18:38:35;13.88;;;4.15;;
43256;SDS011;28860;43.212;27.934;2022-12-05T18:41:03;10.75;;;4.28;;
43256;SDS011;28860;43.212;27.934;2022-12-05T18:43:30;9.18;;;4.18;;
43256;SDS011;28860;43.212;27.934;2022-12-05T18:45:58;7.88;;;3.90;;
43256;SDS011;28860;43.212;27.934;2022-12-05T18:48:25;8.52;;;3.65;;
43256;SDS011;28860;43.212;27.934;2022-12-05T18:50:51;11.52;;;4.22;;
43256;SDS011;28860;43.212;27.934;2022-12-05T18:53:17;10.38;;;3.97;;
43256;SDS011;28860;43.212;27.934;2022-12-05T18:55:43;11.38;;;3.90;;
43256;SDS011;28860;43.212;27.934;2022-12-05T18:58:09;10.10;;;3.90;;
43256;SDS011;28860;43.212;27.934;2022-12-05T19:00:36;13.23;;;3.60;;
43256;SDS011;28860;43.212;27.934;2022-12-05T19:03:02;7.35;;;3.80;;
43256;SDS011;28860;43.212;27.934;2022-12-05T19:05:29;9.13;;;3.10;;
43256;SDS011;28860;43.212;27.934;2022-12-05T19:07:55;9.65;;;4.35;;
43256;SDS011;28860;43.212;27.934;2022-12-05T19:10:21;11.43;;;3.75;;
43256;SDS011;28860;43.212;27.934;2022-12-05T19:12:47;9.23;;;3.45;;
43256;SDS011;28860;43.212;27.934;2022-12-05T19:15:12;12.48;;;3.55;;
43256;SDS011;28860;43.212;27.934;2022-12-05T19:17:39;12.15;;;3.28;;
43256;SDS011;28860;43.212;27.934;2022-12-05T19:20:05;7.38;;;3.35;;
43256;SDS011;28860;43.212;27.934;2022-12-05T19:22:31;9.32;;;3.47;;
43256;SDS011;28860;43.212;27.934;2022-12-05T19:24:56;10.02;;;3.80;;
43256;SDS011;28860;43.212;27.934;2022-12-05T19:27:22;8.52;;;3.50;;
43256;SDS011;28860;43.212;27.934;2022-12-05T19:29:48;7.88;;;3.50;;
43256;SDS011;28860;43.212;27.934;2022-12-05T19:32:13;8.38;;;3.33;;
43256;SDS011;28860;43.212;27.934;2022-12-05T19:34:39;5.90;;;3.47;;
43256;SDS011;28860;43.212;27.934;2022-12-05T19:37:05;5.70;;;2.95;;
43256;SDS011;28860;43.212;27.934;2022-12-05T20:45:45;9.13;;;3.08;;
43256;SDS011;28860;43.212;27.934;2022-12-05T20:48:11;9.27;;;2.80;;
43256;SDS011;28860;43.212;27.934;2022-12-05T20:50:37;5.07;;;2.78;;
43256;SDS011;28860;43.212;27.934;2022-12-05T20:53:03;5.50;;;2.60;;
43256;SDS011;28860;43.212;27.934;2022-12-05T20:55:29;4.70;;;2.13;;
43256;SDS011;28860;43.212;27.934;2022-12-05T20:57:55;5.82;;;2.88;;
43256;SDS011;28860;43.212;27.934;2022-12-05T21:00:20;8.05;;;2.30;;
43256;SDS011;28860;43.212;27.934;2022-12-05T21:02:48;7.10;;;2.85;;
43256;SDS011;28860;43.212;27.934;2022-12-05T21:05:13;7.35;;;2.55;;
43256;SDS011;28860;43.212;27.934;2022-12-05T21:07:39;4.63;;;2.50;;
43256;SDS011;28860;43.212;27.934;2022-12-05T21:10:05;6.00;;;2.55;;
43256;SDS011;28860;43.212;27.934;2022-12-05T21:12:31;5.88;;;2.58;;
43256;SDS011;28860;43.212;27.934;2022-12-05T21:14:57;9.35;;;2.88;;
43256;SDS011;28860;43.212;27.934;2022-12-05T21:17:22;8.68;;;2.60;;
43256;SDS011;28860;43.212;27.934;2022-12-05T21:19:52;8.80;;;2.92;;
43256;SDS011;28860;43.212;27.934;2022-12-05T21:22:18;7.32;;;2.97;;
43256;SDS011;28860;43.212;27.934;2022-12-05T21:24:44;8.75;;;3.03;;
43256;SDS011;28860;43.212;27.934;2022-12-05T21:27:09;8.90;;;3.42;;
43256;SDS011;28860;43.212;27.934;2022-12-05T21:29:35;5.75;;;2.55;;
43256;SDS011;28860;43.212;27.934;2022-12-05T21:32:01;7.30;;;2.72;;
43256;SDS011;28860;43.212;27.934;2022-12-05T21:34:26;5.72;;;2.60;;
43256;SDS011;28860;43.212;27.934;2022-12-05T21:36:52;7.80;;;2.63;;
43256;SDS011;28860;43.212;27.934;2022-12-05T21:39:17;7.07;;;2.67;;
43256;SDS011;28860;43.212;27.934;2022-12-05T21:41:43;8.68;;;2.80;;
43256;SDS011;28860;43.212;27.934;2022-12-05T21:44:09;5.88;;;2.90;;
43256;SDS011;28860;43.212;27.934;2022-12-05T21:46:35;7.43;;;3.22;;
43256;SDS011;28860;43.212;27.934;2022-12-05T21:49:00;9.13;;;2.65;;
43256;SDS011;28860;43.212;27.934;2022-12-05T21:51:26;8.57;;;3.22;;
43256;SDS011;28860;43.212;27.934;2022-12-05T21:53:52;4.60;;;2.55;;
43256;SDS011;28860;43.212;27.934;2022-12-05T21:56:19;10.90;;;3.00;;
43256;SDS011;28860;43.212;27.934;2022-12-05T21:58:47;7.35;;;3.20;;
43256;SDS011;28860;43.212;27.934;2022-12-05T22:01:17;6.88;;;2.25;;
43256;SDS011;28860;43.212;27.934;2022-12-05T22:03:44;7.60;;;2.57;;
43256;SDS011;28860;43.212;27.934;2022-12-05T22:06:11;5.97;;;2.90;;
43256;SDS011;28860;43.212;27.934;2022-12-05T22:08:38;9.52;;;3.00;;
43256;SDS011;28860;43.212;27.934;2022-12-05T22:11:05;7.82;;;3.20;;
43256;SDS011;28860;43.212;27.934;2022-12-05T22:13:35;6.22;;;2.60;;
43256;SDS011;28860;43.212;27.934;2022-12-05T22:16:02;7.45;;;2.63;;
43256;SDS011;28860;43.212;27.934;2022-12-05T22:18:32;8.30;;;2.30;;
43256;SDS011;28860;43.212;27.934;2022-12-05T22:20:59;4.97;;;2.22;;
43256;SDS011;28860;43.212;27.934;2022-12-05T22:23:30;7.65;;;2.50;;
43256;SDS011;28860;43.212;27.934;2022-12-05T22:26:06;6.65;;;2.83;;
43256;SDS011;28860;43.212;27.934;2022-12-05T22:28:33;4.10;;;2.38;;
43256;SDS011;28860;43.212;27.934;2022-12-05T22:31:01;6.47;;;2.58;;
43256;SDS011;28860;43.212;27.934;2022-12-05T22:33:28;8.05;;;2.60;;
43256;SDS011;28860;43.212;27.934;2022-12-05T22:35:59;9.65;;;2.13;;
43256;SDS011;28860;43.212;27.934;2022-12-05T22:38:25;8.13;;;2.60;;
43256;SDS011;28860;43.212;27.934;2022-12-05T22:40:53;5.93;;;2.45;;
43256;SDS011;28860;43.212;27.934;2022-12-05T22:43:21;7.75;;;2.50;;
43256;SDS011;28860;43.212;27.934;2022-12-05T22:45:47;8.18;;;2.53;;
43256;SDS011;28860;43.212;27.934;2022-12-05T22:48:13;7.97;;;2.67;;
43256;SDS011;28860;43.212;27.934;2022-12-05T22:50:44;7.82;;;2.60;;
43256;SDS011;28860;43.212;27.934;2022-12-05T22:53:10;6.82;;;2.15;;
43256;SDS011;28860;43.212;27.934;2022-12-05T22:55:36;7.10;;;2.67;;
43256;SDS011;28860;43.212;27.934;2022-12-05T22:58:01;4.18;;;2.28;;
43256;SDS011;28860;43.212;27.934;2022-12-05T23:00:27;8.82;;;2.80;;
43256;SDS011;28860;43.212;27.934;2022-12-05T23:02:53;10.25;;;2.40;;
43256;SDS011;28860;43.212;27.934;2022-12-05T23:05:18;7.50;;;2.55;;
43256;SDS011;28860;43.212;27.934;2022-12-05T23:07:44;7.45;;;2.50;;
43256;SDS011;28860;43.212;27.934;2022-12-05T23:10:09;8.73;;;3.20;;
43256;SDS011;28860;43.212;27.934;2022-12-05T23:12:35;10.98;;;2.15;;
43256;SDS011;28860;43.212;27.934;2022-12-05T23:15:00;5.57;;;2.28;;
43256;SDS011;28860;43.212;27.934;2022-12-05T23:17:26;11.68;;;2.95;;
43256;SDS011;28860;43.212;27.934;2022-12-05T23:19:52;8.77;;;2.70;;
43256;SDS011;28860;43.212;27.934;2022-12-05T23:22:17;9.32;;;2.47;;
43256;SDS011;28860;43.212;27.934;2022-12-05T23:24:43;7.80;;;2.55;;
43256;SDS011;28860;43.212;27.934;2022-12-05T23:27:08;9.68;;;3.10;;
43256;SDS011;28860;43.212;27.934;2022-12-05T23:29:34;7.78;;;2.70;;
43256;SDS011;28860;43.212;27.934;2022-12-05T23:31:59;7.07;;;3.15;;
43256;SDS011;28860;43.212;27.934;2022-12-05T23:34:25;8.13;;;2.55;;
43256;SDS011;28860;43.212;27.934;2022-12-05T23:36:51;8.00;;;2.70;;
43256;SDS011;28860;43.212;27.934;2022-12-05T23:39:16;7.43;;;2.83;;
43256;SDS011;28860;43.212;27.934;2022-12-05T23:41:42;7.50;;;2.25;;
43256;SDS011;28860;43.212;27.934;2022-12-05T23:44:08;7.95;;;2.58;;
43256;SDS011;28860;43.212;27.934;2022-12-05T23:46:33;8.68;;;2.60;;
43256;SDS011;28860;43.212;27.934;2022-12-05T23:48:59;7.82;;;2.85;;
43256;SDS011;28860;43.212;27.934;2022-12-05T23:51:26;9.38;;;2.63;;
43256;SDS011;28860;43.212;27.934;2022-12-05T23:53:54;9.00;;;2.65;;
43256;SDS011;28860;43.212;27.934;2022-12-05T23:56:23;6.30;;;2.47;;
43256;SDS011;28860;43.212;27.934;2022-12-05T23:58:53;8.85;;;2.70;;
